sensor_id;sensor_type;location;lat;lon;timestamp;P1;durP1;ratioP1;P2;durP2;ratioP2
8086;SDS011;4086;54.412;9.980;2023-01-31T00:00:53;8.97;;;1.70;;
8086;SDS011;4086;54.412;9.980;2023-01-31T00:03:20;11.27;;;2.10;;
8086;SDS011;4086;54.412;9.980;2023-01-31T00:05:46;9.07;;;2.30;;
8086;SDS011;4086;54.412;9.980;2023-01-31T00:08:13;9.23;;;2.00;;
8086;SDS011;4086;54.412;9.980;2023-01-31T00:10:40;6.57;;;2.13;;
8086;SDS011;4086;54.412;9.980;2023-01-31T00:13:07;10.60;;;2.37;;
8086;SDS011;4086;54.412;9.980;2023-01-31T00:15:33;8.73;;;1.40;;
8086;SDS011;4086;54.412;9.980;2023-01-31T00:18:00;6.40;;;1.87;;
8086;SDS011;4086;54.412;9.980;2023-01-31T00:20:26;7.17;;;1.83;;
8086;SDS011;4086;54.412;9.980;2023-01-31T00:22:53;6.00;;;2.00;;
8086;SDS011;4086;54.412;9.980;2023-01-31T00:25:19;7.70;;;1.70;;
8086;SDS011;4086;54.412;9.980;2023-01-31T00:27:47;8.47;;;1.70;;
8086;SDS011;4086;54.412;9.980;2023-01-31T00:30:13;6.80;;;2.00;;
8086;SDS011;4086;54.412;9.980;2023-01-31T00:32:40;7.03;;;1.90;;
8086;SDS011;4086;54.412;9.980;2023-01-31T00:35:06;7.70;;;1.60;;
8086;SDS011;4086;54.412;9.980;2023-01-31T00:37:33;5.83;;;1.30;;
8086;SDS011;4086;54.412;9.980;2023-01-31T00:39:59;9.47;;;1.87;;
8086;SDS011;4086;54.412;9.980;2023-01-31T00:42:26;6.53;;;1.60;;
8086;SDS011;4086;54.412;9.980;2023-01-31T00:44:54;7.10;;;1.57;;
8086;SDS011;4086;54.412;9.980;2023-01-31T00:47:20;7.07;;;1.67;;
8086;SDS011;4086;54.412;9.980;2023-01-31T00:49:46;6.13;;;1.70;;
8086;SDS011;4086;54.412;9.980;2023-01-31T00:52:13;6.67;;;1.73;;
8086;SDS011;4086;54.412;9.980;2023-01-31T00:54:39;5.20;;;1.53;;
8086;SDS011;4086;54.412;9.980;2023-01-31T00:57:06;11.33;;;2.07;;
8086;SDS011;4086;54.412;9.980;2023-01-31T00:59:33;5.70;;;1.30;;
8086;SDS011;4086;54.412;9.980;2023-01-31T01:02:01;6.63;;;2.00;;
8086;SDS011;4086;54.412;9.980;2023-01-31T01:04:27;10.50;;;1.93;;
8086;SDS011;4086;54.412;9.980;2023-01-31T01:06:54;6.73;;;1.83;;
8086;SDS011;4086;54.412;9.980;2023-01-31T01:09:20;5.70;;;1.70;;
8086;SDS011;4086;54.412;9.980;2023-01-31T01:11:47;7.00;;;1.93;;
8086;SDS011;4086;54.412;9.980;2023-01-31T01:14:14;10.97;;;2.30;;
8086;SDS011;4086;54.412;9.980;2023-01-31T01:16:40;5.07;;;1.43;;
8086;SDS011;4086;54.412;9.980;2023-01-31T01:19:15;8.03;;;1.50;;
8086;SDS011;4086;54.412;9.980;2023-01-31T01:21:42;5.87;;;1.30;;
8086;SDS011;4086;54.412;9.980;2023-01-31T01:24:11;8.83;;;1.40;;
8086;SDS011;4086;54.412;9.980;2023-01-31T01:26:39;6.80;;;2.00;;
8086;SDS011;4086;54.412;9.980;2023-01-31T01:29:05;5.67;;;1.70;;
8086;SDS011;4086;54.412;9.980;2023-01-31T01:31:32;5.83;;;1.50;;
8086;SDS011;4086;54.412;9.980;2023-01-31T01:33:59;7.77;;;1.87;;
8086;SDS011;4086;54.412;9.980;2023-01-31T01:36:28;9.13;;;2.40;;
8086;SDS011;4086;54.412;9.980;2023-01-31T01:38:55;5.67;;;1.60;;
8086;SDS011;4086;54.412;9.980;2023-01-31T01:41:21;8.83;;;1.80;;
8086;SDS011;4086;54.412;9.980;2023-01-31T01:43:48;8.23;;;2.37;;
8086;SDS011;4086;54.412;9.980;2023-01-31T01:46:16;6.90;;;1.73;;
8086;SDS011;4086;54.412;9.980;2023-01-31T01:48:45;12.13;;;2.33;;
8086;SDS011;4086;54.412;9.980;2023-01-31T01:51:14;10.73;;;2.33;;
8086;SDS011;4086;54.412;9.980;2023-01-31T01:53:45;7.00;;;2.07;;
8086;SDS011;4086;54.412;9.980;2023-01-31T01:56:14;9.67;;;1.97;;
8086;SDS011;4086;54.412;9.980;2023-01-31T01:58:44;7.63;;;2.10;;
8086;SDS011;4086;54.412;9.980;2023-01-31T02:01:13;7.27;;;1.80;;
8086;SDS011;4086;54.412;9.980;2023-01-31T02:03:40;10.70;;;2.63;;
8086;SDS011;4086;54.412;9.980;2023-01-31T02:06:08;8.67;;;1.87;;
8086;SDS011;4086;54.412;9.980;2023-01-31T02:08:35;8.83;;;2.03;;
8086;SDS011;4086;54.412;9.980;2023-01-31T02:11:06;8.17;;;1.57;;
8086;SDS011;4086;54.412;9.980;2023-01-31T02:13:34;9.73;;;1.70;;
8086;SDS011;4086;54.412;9.980;2023-01-31T02:16:02;11.10;;;2.00;;
8086;SDS011;4086;54.412;9.980;2023-01-31T02:18:28;9.87;;;1.93;;
8086;SDS011;4086;54.412;9.980;2023-01-31T02:24:01;7.33;;;1.53;;
8086;SDS011;4086;54.412;9.980;2023-01-31T02:26:48;7.90;;;2.00;;
8086;SDS011;4086;54.412;9.980;2023-01-31T02:29:33;10.30;;;1.90;;
8086;SDS011;4086;54.412;9.980;2023-01-31T02:32:28;7.83;;;1.83;;
8086;SDS011;4086;54.412;9.980;2023-01-31T02:35:02;11.50;;;1.70;;
8086;SDS011;4086;54.412;9.980;2023-01-31T02:37:35;7.47;;;1.73;;
8086;SDS011;4086;54.412;9.980;2023-01-31T02:40:07;9.57;;;1.60;;
8086;SDS011;4086;54.412;9.980;2023-01-31T02:42:37;8.30;;;1.73;;
8086;SDS011;4086;54.412;9.980;2023-01-31T02:45:14;8.37;;;1.97;;
8086;SDS011;4086;54.412;9.980;2023-01-31T02:47:50;8.90;;;2.13;;
8086;SDS011;4086;54.412;9.980;2023-01-31T02:50:23;10.73;;;2.77;;
8086;SDS011;4086;54.412;9.980;2023-01-31T02:52:55;5.90;;;1.70;;
8086;SDS011;4086;54.412;9.980;2023-01-31T02:55:24;7.60;;;2.33;;
8086;SDS011;4086;54.412;9.980;2023-01-31T02:58:11;7.50;;;1.97;;
8086;SDS011;4086;54.412;9.980;2023-01-31T03:00:39;17.50;;;2.20;;
8086;SDS011;4086;54.412;9.980;2023-01-31T03:03:11;8.57;;;2.30;;
8086;SDS011;4086;54.412;9.980;2023-01-31T03:05:38;13.13;;;2.80;;
8086;SDS011;4086;54.412;9.980;2023-01-31T03:08:06;12.40;;;1.53;;
8086;SDS011;4086;54.412;9.980;2023-01-31T03:10:42;10.23;;;1.97;;
8086;SDS011;4086;54.412;9.980;2023-01-31T03:13:18;11.13;;;2.40;;
8086;SDS011;4086;54.412;9.980;2023-01-31T03:15:54;12.50;;;2.07;;
8086;SDS011;4086;54.412;9.980;2023-01-31T03:18:46;14.43;;;2.33;;
8086;SDS011;4086;54.412;9.980;2023-01-31T03:21:17;7.80;;;2.33;;
8086;SDS011;4086;54.412;9.980;2023-01-31T03:23:46;5.73;;;2.03;;
8086;SDS011;4086;54.412;9.980;2023-01-31T03:26:15;9.17;;;2.20;;
8086;SDS011;4086;54.412;9.980;2023-01-31T03:28:44;12.33;;;2.13;;
8086;SDS011;4086;54.412;9.980;2023-01-31T03:31:13;8.20;;;1.80;;
8086;SDS011;4086;54.412;9.980;2023-01-31T03:33:42;9.67;;;2.10;;
8086;SDS011;4086;54.412;9.980;2023-01-31T03:36:15;8.60;;;1.80;;
8086;SDS011;4086;54.412;9.980;2023-01-31T03:38:47;7.57;;;1.60;;
8086;SDS011;4086;54.412;9.980;2023-01-31T03:41:20;9.83;;;1.87;;
8086;SDS011;4086;54.412;9.980;2023-01-31T03:43:53;11.10;;;2.57;;
8086;SDS011;4086;54.412;9.980;2023-01-31T03:46:23;9.93;;;2.40;;
8086;SDS011;4086;54.412;9.980;2023-01-31T03:48:54;13.50;;;2.90;;
8086;SDS011;4086;54.412;9.980;2023-01-31T03:51:22;11.20;;;2.20;;
8086;SDS011;4086;54.412;9.980;2023-01-31T03:53:51;7.80;;;1.83;;
8086;SDS011;4086;54.412;9.980;2023-01-31T03:56:20;14.37;;;2.53;;
8086;SDS011;4086;54.412;9.980;2023-01-31T03:58:49;10.07;;;2.40;;
8086;SDS011;4086;54.412;9.980;2023-01-31T04:01:17;11.17;;;2.43;;
8086;SDS011;4086;54.412;9.980;2023-01-31T04:03:46;7.67;;;1.97;;
8086;SDS011;4086;54.412;9.980;2023-01-31T04:06:17;11.73;;;2.53;;
8086;SDS011;4086;54.412;9.980;2023-01-31T04:08:44;10.60;;;2.30;;
8086;SDS011;4086;54.412;9.980;2023-01-31T04:11:11;11.20;;;2.00;;
8086;SDS011;4086;54.412;9.980;2023-01-31T04:13:39;9.80;;;2.47;;
8086;SDS011;4086;54.412;9.980;2023-01-31T04:16:06;8.77;;;2.00;;
8086;SDS011;4086;54.412;9.980;2023-01-31T04:18:33;11.60;;;1.83;;
8086;SDS011;4086;54.412;9.980;2023-01-31T04:20:59;13.10;;;2.53;;
8086;SDS011;4086;54.412;9.980;2023-01-31T04:23:27;13.97;;;2.57;;
8086;SDS011;4086;54.412;9.980;2023-01-31T04:25:53;9.73;;;1.87;;
8086;SDS011;4086;54.412;9.980;2023-01-31T04:28:20;10.00;;;2.20;;
8086;SDS011;4086;54.412;9.980;2023-01-31T04:30:50;15.23;;;2.73;;
8086;SDS011;4086;54.412;9.980;2023-01-31T04:33:18;14.73;;;3.03;;
8086;SDS011;4086;54.412;9.980;2023-01-31T04:35:44;13.90;;;2.83;;
8086;SDS011;4086;54.412;9.980;2023-01-31T04:38:10;9.37;;;1.80;;
8086;SDS011;4086;54.412;9.980;2023-01-31T04:40:38;13.67;;;2.00;;
8086;SDS011;4086;54.412;9.980;2023-01-31T04:43:05;9.47;;;1.83;;
8086;SDS011;4086;54.412;9.980;2023-01-31T04:45:31;10.07;;;1.93;;
8086;SDS011;4086;54.412;9.980;2023-01-31T04:47:57;12.97;;;2.40;;
8086;SDS011;4086;54.412;9.980;2023-01-31T04:50:24;13.57;;;2.53;;
8086;SDS011;4086;54.412;9.980;2023-01-31T04:52:50;9.60;;;2.30;;
8086;SDS011;4086;54.412;9.980;2023-01-31T04:55:17;10.40;;;2.23;;
8086;SDS011;4086;54.412;9.980;2023-01-31T04:57:45;8.27;;;2.07;;
8086;SDS011;4086;54.412;9.980;2023-01-31T05:00:12;6.30;;;1.83;;
8086;SDS011;4086;54.412;9.980;2023-01-31T05:02:39;7.57;;;1.73;;
8086;SDS011;4086;54.412;9.980;2023-01-31T05:05:06;13.60;;;2.60;;
8086;SDS011;4086;54.412;9.980;2023-01-31T05:07:33;15.23;;;2.10;;
8086;SDS011;4086;54.412;9.980;2023-01-31T05:09:59;14.83;;;2.17;;
8086;SDS011;4086;54.412;9.980;2023-01-31T05:12:26;10.17;;;1.80;;
8086;SDS011;4086;54.412;9.980;2023-01-31T05:14:53;10.13;;;1.60;;
8086;SDS011;4086;54.412;9.980;2023-01-31T05:17:20;5.73;;;1.93;;
8086;SDS011;4086;54.412;9.980;2023-01-31T05:19:53;6.10;;;1.73;;
8086;SDS011;4086;54.412;9.980;2023-01-31T05:22:20;11.53;;;1.90;;
8086;SDS011;4086;54.412;9.980;2023-01-31T05:24:47;6.53;;;1.77;;
8086;SDS011;4086;54.412;9.980;2023-01-31T05:27:14;7.80;;;2.13;;
8086;SDS011;4086;54.412;9.980;2023-01-31T05:29:41;12.03;;;2.53;;
8086;SDS011;4086;54.412;9.980;2023-01-31T05:32:09;11.33;;;2.73;;
8086;SDS011;4086;54.412;9.980;2023-01-31T05:34:35;5.27;;;1.63;;
8086;SDS011;4086;54.412;9.980;2023-01-31T05:37:02;8.07;;;1.90;;
8086;SDS011;4086;54.412;9.980;2023-01-31T05:39:29;9.47;;;1.90;;
8086;SDS011;4086;54.412;9.980;2023-01-31T05:41:56;9.33;;;1.83;;
8086;SDS011;4086;54.412;9.980;2023-01-31T05:44:22;10.57;;;1.90;;
8086;SDS011;4086;54.412;9.980;2023-01-31T05:46:49;9.20;;;2.13;;
8086;SDS011;4086;54.412;9.980;2023-01-31T05:49:17;14.43;;;2.40;;
8086;SDS011;4086;54.412;9.980;2023-01-31T05:51:43;10.60;;;2.50;;
8086;SDS011;4086;54.412;9.980;2023-01-31T05:54:10;8.00;;;2.10;;
8086;SDS011;4086;54.412;9.980;2023-01-31T05:56:37;8.73;;;3.00;;
8086;SDS011;4086;54.412;9.980;2023-01-31T05:59:04;15.70;;;2.33;;
8086;SDS011;4086;54.412;9.980;2023-01-31T06:01:30;13.53;;;2.10;;
8086;SDS011;4086;54.412;9.980;2023-01-31T06:03:56;10.53;;;2.23;;
8086;SDS011;4086;54.412;9.980;2023-01-31T06:06:24;10.23;;;2.03;;
8086;SDS011;4086;54.412;9.980;2023-01-31T06:08:50;14.80;;;2.70;;
8086;SDS011;4086;54.412;9.980;2023-01-31T06:11:17;14.03;;;2.70;;
8086;SDS011;4086;54.412;9.980;2023-01-31T06:13:43;9.07;;;2.47;;
8086;SDS011;4086;54.412;9.980;2023-01-31T06:16:10;9.63;;;2.57;;
8086;SDS011;4086;54.412;9.980;2023-01-31T06:18:36;14.67;;;2.43;;
8086;SDS011;4086;54.412;9.980;2023-01-31T06:21:03;11.00;;;2.30;;
8086;SDS011;4086;54.412;9.980;2023-01-31T06:23:31;8.67;;;1.70;;
8086;SDS011;4086;54.412;9.980;2023-01-31T06:25:58;8.80;;;2.00;;
8086;SDS011;4086;54.412;9.980;2023-01-31T06:28:25;13.60;;;2.97;;
8086;SDS011;4086;54.412;9.980;2023-01-31T06:30:51;11.27;;;2.73;;
8086;SDS011;4086;54.412;9.980;2023-01-31T06:33:17;12.50;;;2.47;;
8086;SDS011;4086;54.412;9.980;2023-01-31T06:35:44;10.20;;;2.27;;
8086;SDS011;4086;54.412;9.980;2023-01-31T06:38:10;11.33;;;2.23;;
8086;SDS011;4086;54.412;9.980;2023-01-31T06:40:38;14.20;;;3.30;;
8086;SDS011;4086;54.412;9.980;2023-01-31T06:43:05;15.57;;;2.67;;
8086;SDS011;4086;54.412;9.980;2023-01-31T06:45:31;11.60;;;2.77;;
8086;SDS011;4086;54.412;9.980;2023-01-31T06:47:58;14.97;;;2.67;;
8086;SDS011;4086;54.412;9.980;2023-01-31T06:50:25;16.63;;;3.00;;
8086;SDS011;4086;54.412;9.980;2023-01-31T06:52:51;15.43;;;2.47;;
8086;SDS011;4086;54.412;9.980;2023-01-31T06:55:18;8.50;;;2.60;;
8086;SDS011;4086;54.412;9.980;2023-01-31T06:57:46;13.80;;;2.67;;
8086;SDS011;4086;54.412;9.980;2023-01-31T07:00:13;15.57;;;3.20;;
8086;SDS011;4086;54.412;9.980;2023-01-31T07:02:40;10.57;;;2.40;;
8086;SDS011;4086;54.412;9.980;2023-01-31T07:05:07;9.83;;;2.63;;
8086;SDS011;4086;54.412;9.980;2023-01-31T07:07:33;10.13;;;2.40;;
8086;SDS011;4086;54.412;9.980;2023-01-31T07:10:00;10.37;;;2.87;;
8086;SDS011;4086;54.412;9.980;2023-01-31T07:12:26;11.50;;;2.50;;
8086;SDS011;4086;54.412;9.980;2023-01-31T07:14:54;14.07;;;2.27;;
8086;SDS011;4086;54.412;9.980;2023-01-31T07:17:21;9.57;;;2.67;;
8086;SDS011;4086;54.412;9.980;2023-01-31T07:19:47;12.10;;;1.97;;
8086;SDS011;4086;54.412;9.980;2023-01-31T07:22:13;10.10;;;2.43;;
8086;SDS011;4086;54.412;9.980;2023-01-31T07:24:40;16.53;;;3.07;;
8086;SDS011;4086;54.412;9.980;2023-01-31T07:27:06;11.10;;;2.90;;
8086;SDS011;4086;54.412;9.980;2023-01-31T07:29:32;11.17;;;2.63;;
8086;SDS011;4086;54.412;9.980;2023-01-31T07:32:00;14.90;;;2.43;;
8086;SDS011;4086;54.412;9.980;2023-01-31T07:34:26;15.87;;;3.20;;
8086;SDS011;4086;54.412;9.980;2023-01-31T07:36:53;18.23;;;2.87;;
8086;SDS011;4086;54.412;9.980;2023-01-31T07:39:19;20.53;;;4.17;;
8086;SDS011;4086;54.412;9.980;2023-01-31T07:41:46;23.53;;;4.17;;
8086;SDS011;4086;54.412;9.980;2023-01-31T07:44:12;16.17;;;3.73;;
8086;SDS011;4086;54.412;9.980;2023-01-31T07:46:39;20.70;;;5.00;;
8086;SDS011;4086;54.412;9.980;2023-01-31T07:49:07;22.37;;;5.17;;
8086;SDS011;4086;54.412;9.980;2023-01-31T07:51:34;21.57;;;5.17;;
8086;SDS011;4086;54.412;9.980;2023-01-31T07:54:03;18.83;;;5.03;;
8086;SDS011;4086;54.412;9.980;2023-01-31T07:56:29;21.70;;;6.10;;
8086;SDS011;4086;54.412;9.980;2023-01-31T07:58:57;18.33;;;5.70;;
8086;SDS011;4086;54.412;9.980;2023-01-31T08:01:25;24.60;;;5.93;;
8086;SDS011;4086;54.412;9.980;2023-01-31T08:04:12;25.83;;;6.03;;
8086;SDS011;4086;54.412;9.980;2023-01-31T08:06:40;21.00;;;5.77;;
8086;SDS011;4086;54.412;9.980;2023-01-31T08:09:07;21.70;;;5.17;;
8086;SDS011;4086;54.412;9.980;2023-01-31T08:11:34;18.97;;;5.47;;
8086;SDS011;4086;54.412;9.980;2023-01-31T08:14:00;19.07;;;5.73;;
8086;SDS011;4086;54.412;9.980;2023-01-31T08:16:27;19.80;;;5.70;;
8086;SDS011;4086;54.412;9.980;2023-01-31T08:18:55;14.83;;;5.90;;
8086;SDS011;4086;54.412;9.980;2023-01-31T08:21:23;15.67;;;4.70;;
8086;SDS011;4086;54.412;9.980;2023-01-31T08:23:49;14.67;;;4.53;;
8086;SDS011;4086;54.412;9.980;2023-01-31T08:26:16;19.10;;;6.00;;
8086;SDS011;4086;54.412;9.980;2023-01-31T08:28:45;12.47;;;4.33;;
8086;SDS011;4086;54.412;9.980;2023-01-31T08:31:12;18.53;;;4.40;;
8086;SDS011;4086;54.412;9.980;2023-01-31T08:33:40;12.27;;;4.27;;
8086;SDS011;4086;54.412;9.980;2023-01-31T08:36:07;15.03;;;4.73;;
8086;SDS011;4086;54.412;9.980;2023-01-31T08:38:35;15.97;;;4.30;;
8086;SDS011;4086;54.412;9.980;2023-01-31T08:41:02;14.47;;;4.07;;
8086;SDS011;4086;54.412;9.980;2023-01-31T08:43:29;18.30;;;4.97;;
8086;SDS011;4086;54.412;9.980;2023-01-31T08:45:56;17.97;;;4.53;;
8086;SDS011;4086;54.412;9.980;2023-01-31T08:48:23;14.90;;;4.87;;
8086;SDS011;4086;54.412;9.980;2023-01-31T08:50:49;17.33;;;4.53;;
8086;SDS011;4086;54.412;9.980;2023-01-31T08:53:16;13.17;;;4.63;;
8086;SDS011;4086;54.412;9.980;2023-01-31T08:55:43;15.43;;;4.60;;
8086;SDS011;4086;54.412;9.980;2023-01-31T08:58:10;8.60;;;4.20;;
8086;SDS011;4086;54.412;9.980;2023-01-31T09:00:36;11.10;;;4.20;;
8086;SDS011;4086;54.412;9.980;2023-01-31T09:03:02;11.77;;;4.37;;
8086;SDS011;4086;54.412;9.980;2023-01-31T09:05:30;8.20;;;4.10;;
8086;SDS011;4086;54.412;9.980;2023-01-31T09:07:57;16.17;;;5.23;;
8086;SDS011;4086;54.412;9.980;2023-01-31T09:10:23;13.87;;;5.03;;
8086;SDS011;4086;54.412;9.980;2023-01-31T09:12:51;9.77;;;4.57;;
8086;SDS011;4086;54.412;9.980;2023-01-31T09:15:18;12.50;;;4.83;;
8086;SDS011;4086;54.412;9.980;2023-01-31T09:17:44;8.93;;;4.97;;
8086;SDS011;4086;54.412;9.980;2023-01-31T09:20:10;11.40;;;4.40;;
8086;SDS011;4086;54.412;9.980;2023-01-31T09:22:37;9.60;;;4.80;;
8086;SDS011;4086;54.412;9.980;2023-01-31T09:25:03;12.87;;;5.13;;
8086;SDS011;4086;54.412;9.980;2023-01-31T09:27:31;7.23;;;4.30;;
8086;SDS011;4086;54.412;9.980;2023-01-31T09:29:58;8.47;;;4.33;;
8086;SDS011;4086;54.412;9.980;2023-01-31T09:32:25;9.73;;;4.53;;
8086;SDS011;4086;54.412;9.980;2023-01-31T09:34:51;8.70;;;4.20;;
8086;SDS011;4086;54.412;9.980;2023-01-31T09:37:17;8.13;;;4.00;;
8086;SDS011;4086;54.412;9.980;2023-01-31T09:39:44;7.40;;;4.20;;
8086;SDS011;4086;54.412;9.980;2023-01-31T09:42:14;8.80;;;4.30;;
8086;SDS011;4086;54.412;9.980;2023-01-31T09:44:45;6.40;;;4.03;;
8086;SDS011;4086;54.412;9.980;2023-01-31T09:47:18;8.70;;;4.30;;
8086;SDS011;4086;54.412;9.980;2023-01-31T09:49:47;8.33;;;4.37;;
8086;SDS011;4086;54.412;9.980;2023-01-31T09:52:15;9.57;;;4.43;;
8086;SDS011;4086;54.412;9.980;2023-01-31T09:54:41;6.00;;;4.13;;
8086;SDS011;4086;54.412;9.980;2023-01-31T09:57:12;6.13;;;3.53;;
8086;SDS011;4086;54.412;9.980;2023-01-31T09:59:46;5.83;;;3.73;;
8086;SDS011;4086;54.412;9.980;2023-01-31T10:02:20;10.10;;;4.00;;
8086;SDS011;4086;54.412;9.980;2023-01-31T10:04:59;5.80;;;3.50;;
8086;SDS011;4086;54.412;9.980;2023-01-31T10:07:31;8.83;;;3.77;;
8086;SDS011;4086;54.412;9.980;2023-01-31T10:10:01;5.40;;;3.20;;
8086;SDS011;4086;54.412;9.980;2023-01-31T10:12:31;7.57;;;3.23;;
8086;SDS011;4086;54.412;9.980;2023-01-31T10:14:59;9.10;;;3.80;;
8086;SDS011;4086;54.412;9.980;2023-01-31T10:17:31;5.07;;;3.10;;
8086;SDS011;4086;54.412;9.980;2023-01-31T10:20:04;5.03;;;3.33;;
8086;SDS011;4086;54.412;9.980;2023-01-31T10:22:35;5.83;;;3.37;;
8086;SDS011;4086;54.412;9.980;2023-01-31T10:25:07;6.97;;;3.53;;
8086;SDS011;4086;54.412;9.980;2023-01-31T10:27:42;5.17;;;3.40;;
8086;SDS011;4086;54.412;9.980;2023-01-31T10:30:13;6.23;;;3.23;;
8086;SDS011;4086;54.412;9.980;2023-01-31T10:32:43;10.37;;;3.53;;
8086;SDS011;4086;54.412;9.980;2023-01-31T10:35:13;4.87;;;3.20;;
8086;SDS011;4086;54.412;9.980;2023-01-31T10:37:42;6.67;;;3.10;;
8086;SDS011;4086;54.412;9.980;2023-01-31T10:40:12;8.93;;;3.77;;
8086;SDS011;4086;54.412;9.980;2023-01-31T10:42:41;6.73;;;3.40;;
8086;SDS011;4086;54.412;9.980;2023-01-31T10:45:11;8.87;;;3.30;;
8086;SDS011;4086;54.412;9.980;2023-01-31T10:47:46;5.80;;;3.03;;
8086;SDS011;4086;54.412;9.980;2023-01-31T10:50:15;8.97;;;3.33;;
8086;SDS011;4086;54.412;9.980;2023-01-31T10:52:52;5.47;;;2.83;;
8086;SDS011;4086;54.412;9.980;2023-01-31T10:55:40;9.77;;;3.57;;
8086;SDS011;4086;54.412;9.980;2023-01-31T10:58:12;6.30;;;3.00;;
8086;SDS011;4086;54.412;9.980;2023-01-31T11:00:41;5.10;;;2.40;;
8086;SDS011;4086;54.412;9.980;2023-01-31T11:03:09;7.30;;;2.77;;
8086;SDS011;4086;54.412;9.980;2023-01-31T11:05:37;3.60;;;2.37;;
8086;SDS011;4086;54.412;9.980;2023-01-31T11:08:19;4.70;;;2.60;;
8086;SDS011;4086;54.412;9.980;2023-01-31T11:10:49;6.60;;;2.23;;
8086;SDS011;4086;54.412;9.980;2023-01-31T11:13:17;7.00;;;2.33;;
8086;SDS011;4086;54.412;9.980;2023-01-31T11:15:44;5.90;;;2.03;;
8086;SDS011;4086;54.412;9.980;2023-01-31T11:18:14;7.23;;;2.50;;
8086;SDS011;4086;54.412;9.980;2023-01-31T11:20:48;4.40;;;2.17;;
8086;SDS011;4086;54.412;9.980;2023-01-31T11:23:15;3.77;;;2.10;;
8086;SDS011;4086;54.412;9.980;2023-01-31T11:25:45;4.97;;;2.27;;
8086;SDS011;4086;54.412;9.980;2023-01-31T11:28:18;6.27;;;2.40;;
8086;SDS011;4086;54.412;9.980;2023-01-31T11:30:46;4.73;;;2.20;;
8086;SDS011;4086;54.412;9.980;2023-01-31T11:36:08;9.17;;;2.90;;
8086;SDS011;4086;54.412;9.980;2023-01-31T11:38:35;8.17;;;2.70;;
8086;SDS011;4086;54.412;9.980;2023-01-31T11:41:04;7.23;;;2.93;;
8086;SDS011;4086;54.412;9.980;2023-01-31T11:44:10;5.60;;;2.37;;
8086;SDS011;4086;54.412;9.980;2023-01-31T11:49:30;5.97;;;3.03;;
8086;SDS011;4086;54.412;9.980;2023-01-31T11:51:59;7.00;;;2.47;;
8086;SDS011;4086;54.412;9.980;2023-01-31T11:54:27;10.80;;;3.00;;
8086;SDS011;4086;54.412;9.980;2023-01-31T11:56:55;10.50;;;3.40;;
8086;SDS011;4086;54.412;9.980;2023-01-31T11:59:22;8.73;;;3.00;;
8086;SDS011;4086;54.412;9.980;2023-01-31T12:01:51;8.03;;;3.30;;
8086;SDS011;4086;54.412;9.980;2023-01-31T12:04:19;9.67;;;3.17;;
8086;SDS011;4086;54.412;9.980;2023-01-31T12:06:57;6.90;;;3.00;;
8086;SDS011;4086;54.412;9.980;2023-01-31T12:09:26;8.80;;;2.97;;
8086;SDS011;4086;54.412;9.980;2023-01-31T12:11:55;13.53;;;3.70;;
8086;SDS011;4086;54.412;9.980;2023-01-31T12:14:22;8.23;;;3.10;;
8086;SDS011;4086;54.412;9.980;2023-01-31T12:16:51;9.73;;;3.70;;
8086;SDS011;4086;54.412;9.980;2023-01-31T12:19:20;7.90;;;3.37;;
8086;SDS011;4086;54.412;9.980;2023-01-31T12:21:55;7.70;;;3.23;;
8086;SDS011;4086;54.412;9.980;2023-01-31T12:24:29;9.87;;;3.03;;
8086;SDS011;4086;54.412;9.980;2023-01-31T12:27:03;5.40;;;2.83;;
8086;SDS011;4086;54.412;9.980;2023-01-31T12:29:49;10.17;;;3.90;;
8086;SDS011;4086;54.412;9.980;2023-01-31T12:32:39;16.50;;;3.50;;
8086;SDS011;4086;54.412;9.980;2023-01-31T12:35:16;14.47;;;3.77;;
8086;SDS011;4086;54.412;9.980;2023-01-31T12:37:55;20.47;;;4.90;;
8086;SDS011;4086;54.412;9.980;2023-01-31T12:40:33;16.77;;;4.17;;
8086;SDS011;4086;54.412;9.980;2023-01-31T12:43:04;23.63;;;5.00;;
8086;SDS011;4086;54.412;9.980;2023-01-31T12:45:40;16.40;;;4.33;;
8086;SDS011;4086;54.412;9.980;2023-01-31T12:48:19;20.20;;;4.63;;
8086;SDS011;4086;54.412;9.980;2023-01-31T12:50:51;20.87;;;4.60;;
8086;SDS011;4086;54.412;9.980;2023-01-31T12:53:34;24.83;;;5.13;;
8086;SDS011;4086;54.412;9.980;2023-01-31T12:56:20;29.77;;;5.40;;
8086;SDS011;4086;54.412;9.980;2023-01-31T12:58:53;20.90;;;5.00;;
8086;SDS011;4086;54.412;9.980;2023-01-31T13:01:26;23.60;;;4.90;;
8086;SDS011;4086;54.412;9.980;2023-01-31T13:03:59;23.90;;;6.13;;
8086;SDS011;4086;54.412;9.980;2023-01-31T13:06:48;22.93;;;5.33;;
8086;SDS011;4086;54.412;9.980;2023-01-31T13:09:18;23.10;;;5.10;;
8086;SDS011;4086;54.412;9.980;2023-01-31T13:11:46;27.50;;;5.60;;
8086;SDS011;4086;54.412;9.980;2023-01-31T13:14:16;22.53;;;5.00;;
8086;SDS011;4086;54.412;9.980;2023-01-31T13:16:46;23.40;;;4.67;;
8086;SDS011;4086;54.412;9.980;2023-01-31T13:19:14;18.50;;;3.67;;
8086;SDS011;4086;54.412;9.980;2023-01-31T13:21:44;20.50;;;4.20;;
8086;SDS011;4086;54.412;9.980;2023-01-31T13:24:13;19.20;;;4.90;;
8086;SDS011;4086;54.412;9.980;2023-01-31T13:26:44;24.43;;;4.57;;
8086;SDS011;4086;54.412;9.980;2023-01-31T13:29:13;22.63;;;3.80;;
8086;SDS011;4086;54.412;9.980;2023-01-31T13:31:43;19.97;;;3.67;;
8086;SDS011;4086;54.412;9.980;2023-01-31T13:34:12;16.53;;;3.80;;
8086;SDS011;4086;54.412;9.980;2023-01-31T13:36:41;25.27;;;4.47;;
8086;SDS011;4086;54.412;9.980;2023-01-31T13:39:11;17.03;;;3.60;;
8086;SDS011;4086;54.412;9.980;2023-01-31T13:41:39;33.33;;;4.20;;
8086;SDS011;4086;54.412;9.980;2023-01-31T13:44:10;18.63;;;4.23;;
8086;SDS011;4086;54.412;9.980;2023-01-31T13:46:39;30.13;;;5.03;;
8086;SDS011;4086;54.412;9.980;2023-01-31T13:49:12;18.97;;;4.53;;
8086;SDS011;4086;54.412;9.980;2023-01-31T13:51:42;23.63;;;4.13;;
8086;SDS011;4086;54.412;9.980;2023-01-31T13:54:13;23.63;;;3.97;;
8086;SDS011;4086;54.412;9.980;2023-01-31T13:56:44;19.33;;;3.90;;
8086;SDS011;4086;54.412;9.980;2023-01-31T13:59:18;16.87;;;3.83;;
8086;SDS011;4086;54.412;9.980;2023-01-31T14:01:47;18.83;;;3.00;;
8086;SDS011;4086;54.412;9.980;2023-01-31T14:04:31;18.67;;;4.00;;
8086;SDS011;4086;54.412;9.980;2023-01-31T14:12:50;23.87;;;4.53;;
8086;SDS011;4086;54.412;9.980;2023-01-31T14:15:52;18.53;;;3.43;;
8086;SDS011;4086;54.412;9.980;2023-01-31T14:18:39;14.90;;;3.73;;
8086;SDS011;4086;54.412;9.980;2023-01-31T14:24:20;8.37;;;2.97;;
8086;SDS011;4086;54.412;9.980;2023-01-31T14:27:01;20.20;;;3.90;;
8086;SDS011;4086;54.412;9.980;2023-01-31T14:29:28;19.03;;;4.50;;
8086;SDS011;4086;54.412;9.980;2023-01-31T14:31:58;18.23;;;3.40;;
8086;SDS011;4086;54.412;9.980;2023-01-31T14:34:25;18.70;;;3.43;;
8086;SDS011;4086;54.412;9.980;2023-01-31T14:36:56;14.33;;;2.53;;
8086;SDS011;4086;54.412;9.980;2023-01-31T14:45:35;18.67;;;4.07;;
8086;SDS011;4086;54.412;9.980;2023-01-31T14:48:12;18.33;;;3.53;;
8086;SDS011;4086;54.412;9.980;2023-01-31T14:50:44;21.13;;;4.20;;
8086;SDS011;4086;54.412;9.980;2023-01-31T14:53:33;16.40;;;3.80;;
8086;SDS011;4086;54.412;9.980;2023-01-31T14:56:11;17.47;;;3.70;;
8086;SDS011;4086;54.412;9.980;2023-01-31T14:58:44;13.80;;;2.90;;
8086;SDS011;4086;54.412;9.980;2023-01-31T15:01:11;20.70;;;3.63;;
8086;SDS011;4086;54.412;9.980;2023-01-31T15:03:48;21.63;;;3.63;;
8086;SDS011;4086;54.412;9.980;2023-01-31T15:06:16;21.37;;;3.70;;
8086;SDS011;4086;54.412;9.980;2023-01-31T15:08:48;18.57;;;3.83;;
8086;SDS011;4086;54.412;9.980;2023-01-31T15:14:01;19.10;;;3.93;;
8086;SDS011;4086;54.412;9.980;2023-01-31T15:16:45;18.07;;;3.30;;
8086;SDS011;4086;54.412;9.980;2023-01-31T15:19:14;13.07;;;3.77;;
8086;SDS011;4086;54.412;9.980;2023-01-31T15:21:44;22.90;;;3.87;;
8086;SDS011;4086;54.412;9.980;2023-01-31T15:24:15;15.40;;;3.70;;
8086;SDS011;4086;54.412;9.980;2023-01-31T15:26:44;21.77;;;3.60;;
8086;SDS011;4086;54.412;9.980;2023-01-31T15:29:11;27.17;;;4.40;;
8086;SDS011;4086;54.412;9.980;2023-01-31T15:31:42;18.70;;;3.77;;
8086;SDS011;4086;54.412;9.980;2023-01-31T15:34:11;19.47;;;3.93;;
8086;SDS011;4086;54.412;9.980;2023-01-31T15:36:44;19.20;;;3.73;;
8086;SDS011;4086;54.412;9.980;2023-01-31T15:39:18;15.43;;;3.73;;
8086;SDS011;4086;54.412;9.980;2023-01-31T15:41:46;30.30;;;4.83;;
8086;SDS011;4086;54.412;9.980;2023-01-31T15:44:15;14.07;;;3.80;;
8086;SDS011;4086;54.412;9.980;2023-01-31T15:46:43;12.00;;;3.97;;
8086;SDS011;4086;54.412;9.980;2023-01-31T15:49:22;16.23;;;4.23;;